M.o.m. — WDE6166 — position and weather

sailwx.info

Track history (hours):
 
Tides and Currents Weather Stations Pressure Air Temp Water Temp Dewpoint Dewpoint Depression Visibility Wind Speed Wind Dir Waves Ship Positions

M.o.m.

Owner: Anderson, Carl W, Lopez Island, WA. More information available from US FCC via Universal Licensing System and Coast Guard Vessel Documentation Center.

Last reported at 2016-Jun-25 15:28 UTC. Time now 2016-Jul-01 19:00 UTC.
Position N 50°16' W 125°14'.

Length 11 m.

Type: Sailing vessel. MMSI: 367376770.

Date/timePositionNaut miles runAvg speedWind from/ knotsBaromVisibWave heightAir tempDewpointWater temp
2016-Jun-25 15:28N 50°16' W 125°14'5 0.2
2016-Jun-24 20:16N 50°20' W 125°08'4 1.0
2016-Jun-24 16:34N 50°18' W 125°03'6 6.4
2016-Jun-24 15:33N 50°13' W 124°57'4 4.4
2016-Jun-24 14:33N 50°09' W 124°54'6 6.0
2016-Jun-24 13:33N 50°04' W 124°48'1 1.2
2016-Jun-24 12:33N 50°03' W 124°48'0 0.0
2016-Jun-24 02:10N 50°03' W 124°48'0 0.0
2016-Jun-24 01:31N 50°03' W 124°48'0 0.0
2016-Jun-24 00:28N 50°03' W 124°48'0 0.0
2016-Jun-23 23:31N 50°03' W 124°48'2 2.1
2016-Jun-23 22:30N 50°02' W 124°50'4 3.7
2016-Jun-23 21:33N 49°59' W 124°47'36 1.4
2016-Jun-22 19:30N 49°34' W 124°08'7 7.4
2016-Jun-22 18:31N 49°28' W 124°01'6 6.7
2016-Jun-22 17:33N 49°23' W 123°55'6 6.3
2016-Jun-22 16:33N 49°18' W 123°49'54 1.3
2016-Jun-21 00:11N 48°34' W 123°01'4 6.8
2016-Jun-20 23:33N 48°32' W 122°55'1 0.8
2016-Jun-20 22:33N 48°31' W 122°55'0 0.0
2016-Jun-20 14:30N 48°31' W 122°55'0 0.0
2016-Jun-20 03:13N 48°31' W 122°55'0 0.1
2016-Jun-20 02:32N 48°31' W 122°55'0 0.0
2016-Jun-20 01:32N 48°31' W 122°55'0 0.0
2016-Jun-20 00:32N 48°31' W 122°55'0 0.0
2016-Jun-19 23:29N 48°31' W 122°55'0 0.0
2016-Jun-19 22:32N 48°31' W 122°55'4 3.8
2016-Jun-19 21:33N 48°33' W 122°59'0 0.0
2016-Jun-19 04:33N 48°34' W 122°59'0 0.0
2016-Jun-19 01:18N 48°34' W 122°59'1 1.3
2016-Jun-19 00:33N 48°34' W 122°60'7 1.4
2016-Jun-18 19:20N 48°35' W 123°10'  
2016-Jun-16 01:24N 49°00' W 123°49'2 0.8
2016-Jun-15 23:33N 48°59' W 123°48'4 4.3
2016-Jun-15 22:31N 49°03' W 123°44'  
Track history (hours):
 
Tides and Currents Weather Stations Pressure Air Temp Water Temp Dewpoint Dewpoint Depression Visibility Wind Speed Wind Dir Waves Ship Positions

M.o.m.

Owner: Anderson, Carl W, Lopez Island, WA. More information available from US FCC via Universal Licensing System and Coast Guard Vessel Documentation Center.

Last reported at 2016-Jun-25 15:28 UTC. Time now 2016-Jul-01 19:00 UTC.
Position N 50°16' W 125°14'.

Length 11 m.

Type: Sailing vessel. MMSI: 367376770.

Date/timePositionNaut miles runAvg speedWind from/ knotsBaromVisibWave heightAir tempDewpointWater temp
2016-Jun-25 15:28N 50°16' W 125°14'5 0.2
2016-Jun-24 20:16N 50°20' W 125°08'4 1.0
2016-Jun-24 16:34N 50°18' W 125°03'6 6.4
2016-Jun-24 15:33N 50°13' W 124°57'4 4.4
2016-Jun-24 14:33N 50°09' W 124°54'6 6.0
2016-Jun-24 13:33N 50°04' W 124°48'1 1.2
2016-Jun-24 12:33N 50°03' W 124°48'0 0.0
2016-Jun-24 02:10N 50°03' W 124°48'0 0.0
2016-Jun-24 01:31N 50°03' W 124°48'0 0.0
2016-Jun-24 00:28N 50°03' W 124°48'0 0.0
2016-Jun-23 23:31N 50°03' W 124°48'2 2.1
2016-Jun-23 22:30N 50°02' W 124°50'4 3.7
2016-Jun-23 21:33N 49°59' W 124°47'36 1.4
2016-Jun-22 19:30N 49°34' W 124°08'7 7.4
2016-Jun-22 18:31N 49°28' W 124°01'6 6.7
2016-Jun-22 17:33N 49°23' W 123°55'6 6.3
2016-Jun-22 16:33N 49°18' W 123°49'54 1.3
2016-Jun-21 00:11N 48°34' W 123°01'4 6.8
2016-Jun-20 23:33N 48°32' W 122°55'1 0.8
2016-Jun-20 22:33N 48°31' W 122°55'0 0.0
2016-Jun-20 14:30N 48°31' W 122°55'0 0.0
2016-Jun-20 03:13N 48°31' W 122°55'0 0.1
2016-Jun-20 02:32N 48°31' W 122°55'0 0.0
2016-Jun-20 01:32N 48°31' W 122°55'0 0.0
2016-Jun-20 00:32N 48°31' W 122°55'0 0.0
2016-Jun-19 23:29N 48°31' W 122°55'0 0.0
2016-Jun-19 22:32N 48°31' W 122°55'4 3.8
2016-Jun-19 21:33N 48°33' W 122°59'0 0.0
2016-Jun-19 04:33N 48°34' W 122°59'0 0.0
2016-Jun-19 01:18N 48°34' W 122°59'1 1.3
2016-Jun-19 00:33N 48°34' W 122°60'7 1.4
2016-Jun-18 19:20N 48°35' W 123°10'  
2016-Jun-16 01:24N 49°00' W 123°49'2 0.8
2016-Jun-15 23:33N 48°59' W 123°48'4 4.3
2016-Jun-15 22:31N 49°03' W 123°44'  

Dump ship's entire track history